createdAt,value
2023-03-06T00:00:46.027Z,5.07
2023-03-06T00:03:12.821Z,5.10
2023-03-06T00:05:40.091Z,6.35
2023-03-06T00:08:06.971Z,3.95
2023-03-06T00:10:33.985Z,5.03
2023-03-06T00:13:03.751Z,6.53
2023-03-06T00:15:30.659Z,5.38
2023-03-06T00:17:58.026Z,6.85
2023-03-06T00:20:25.558Z,5.40
2023-03-06T00:22:52.458Z,6.30
2023-03-06T00:25:21.300Z,5.95
2023-03-06T00:27:48.444Z,5.82
2023-03-06T00:30:19.038Z,6.82
2023-03-06T00:32:45.755Z,5.40
2023-03-06T00:35:13.422Z,6.90
2023-03-06T00:37:40.072Z,5.43
2023-03-06T00:40:15.275Z,5.18
2023-03-06T00:42:42.118Z,5.07
2023-03-06T00:45:09.877Z,4.80
2023-03-06T00:47:36.916Z,5.85
2023-03-06T00:50:04.611Z,8.18
2023-03-06T00:52:31.578Z,5.35
2023-03-06T00:54:58.250Z,4.72
2023-03-06T00:57:25.094Z,5.00
2023-03-06T00:59:51.822Z,6.47
2023-03-06T01:02:20.711Z,5.65
2023-03-06T01:04:47.349Z,5.10
2023-03-06T01:07:14.014Z,5.22
2023-03-06T01:09:40.980Z,6.05
2023-03-06T01:12:08.155Z,5.80
2023-03-06T01:14:35.341Z,4.40
2023-03-06T01:17:01.976Z,5.00
2023-03-06T01:19:28.649Z,5.20
2023-03-06T01:21:55.189Z,5.50
2023-03-06T01:24:23.927Z,5.00
2023-03-06T01:26:50.561Z,7.28
2023-03-06T01:29:17.318Z,4.63
2023-03-06T01:31:43.960Z,5.13
2023-03-06T01:34:10.661Z,7.78
2023-03-06T01:36:37.387Z,5.47
2023-03-06T01:39:04.040Z,5.80
2023-03-06T01:41:32.570Z,6.05
2023-03-06T01:43:59.477Z,5.60
2023-03-06T01:46:28.759Z,6.07
2023-03-06T01:48:59.167Z,5.07
2023-03-06T01:51:30.357Z,5.07
2023-03-06T01:54:00.568Z,3.95
2023-03-06T01:56:28.489Z,6.63
2023-03-06T01:58:55.629Z,5.38
2023-03-06T02:01:23.315Z,5.78
2023-03-06T02:03:50.995Z,4.15
2023-03-06T02:06:21.755Z,5.30
2023-03-06T02:08:51.248Z,4.22
2023-03-06T02:11:23.864Z,4.18
2023-03-06T02:13:52.664Z,4.78
2023-03-06T02:16:24.206Z,5.15
2023-03-06T02:18:51.220Z,4.53
2023-03-06T02:21:25.440Z,3.97
2023-03-06T02:26:21.686Z,4.25
2023-03-06T02:28:48.338Z,6.10
2023-03-06T02:31:28.999Z,5.38
2023-03-06T02:34:24.661Z,5.70
2023-03-06T02:37:00.691Z,3.80
2023-03-06T02:39:32.589Z,5.05
2023-03-06T02:41:59.295Z,3.95
2023-03-06T02:44:30.027Z,6.00
2023-03-06T02:46:56.646Z,5.38
2023-03-06T02:49:26.127Z,5.05
2023-03-06T02:51:53.082Z,5.38
2023-03-06T02:54:19.686Z,5.55
2023-03-06T02:56:46.581Z,5.95
2023-03-06T02:59:13.347Z,4.70
2023-03-06T03:01:40.207Z,6.15
2023-03-06T03:04:08.103Z,5.68
2023-03-06T03:06:34.788Z,4.63
2023-03-06T03:09:01.845Z,3.25
2023-03-06T03:11:28.912Z,5.53
2023-03-06T03:13:55.796Z,4.85
2023-03-06T03:16:24.292Z,4.00
2023-03-06T03:18:53.711Z,4.75
2023-03-06T03:21:22.757Z,4.35
2023-03-06T03:23:49.396Z,4.90
2023-03-06T03:26:19.208Z,5.40
2023-03-06T03:28:56.294Z,4.50
2023-03-06T03:31:23.076Z,5.35
2023-03-06T03:33:50.138Z,5.55
2023-03-06T03:36:18.404Z,5.15
2023-03-06T03:38:47.059Z,4.07
2023-03-06T03:41:14.373Z,4.60
2023-03-06T03:43:42.912Z,3.53
2023-03-06T03:48:37.089Z,3.25
2023-03-06T03:51:07.595Z,4.22
2023-03-06T03:53:37.064Z,4.63
2023-03-06T03:56:04.563Z,4.78
2023-03-06T03:58:34.044Z,4.50
2023-03-06T04:01:01.128Z,5.03
2023-03-06T04:03:28.366Z,4.22
2023-03-06T04:05:55.559Z,4.78
2023-03-06T04:08:24.139Z,4.55
2023-03-06T04:10:51.759Z,3.92
2023-03-06T04:13:21.949Z,3.40
2023-03-06T04:15:51.086Z,4.18
2023-03-06T04:18:19.915Z,3.78
2023-03-06T04:20:48.919Z,3.53
2023-03-06T04:23:16.310Z,6.00
2023-03-06T04:25:43.048Z,3.95
2023-03-06T04:28:12.477Z,4.35
2023-03-06T04:30:39.574Z,4.72
2023-03-06T04:33:06.405Z,3.38
2023-03-06T04:35:33.430Z,4.38
2023-03-06T04:38:05.512Z,4.68
2023-03-06T04:40:34.300Z,5.20
2023-03-06T04:43:03.159Z,4.32
2023-03-06T04:45:30.878Z,4.95
2023-03-06T04:47:57.604Z,5.30
2023-03-06T04:50:25.529Z,4.53
2023-03-06T04:52:52.615Z,4.53
2023-03-06T04:55:19.980Z,4.13
2023-03-06T04:57:47.940Z,5.70
2023-03-06T05:00:20.764Z,4.70
2023-03-06T05:02:48.849Z,5.32
2023-03-06T05:07:43.843Z,3.42
2023-03-06T05:10:13.618Z,3.47
2023-03-06T05:12:40.666Z,4.22
2023-03-06T05:15:08.923Z,4.70
2023-03-06T05:17:35.608Z,3.60
2023-03-06T05:20:02.259Z,4.35
2023-03-06T05:22:28.874Z,4.40
2023-03-06T05:24:55.516Z,4.15
2023-03-06T05:27:22.328Z,4.47
2023-03-06T05:29:48.987Z,5.55
2023-03-06T05:32:17.047Z,3.47
2023-03-06T05:34:43.748Z,3.30
2023-03-06T05:37:10.375Z,2.75
2023-03-06T05:39:37.210Z,3.25
2023-03-06T05:42:03.960Z,4.18
2023-03-06T05:44:34.950Z,3.33
2023-03-06T05:47:02.269Z,5.10
2023-03-06T05:49:34.452Z,4.10
2023-03-06T05:52:04.051Z,2.90
2023-03-06T05:54:32.148Z,4.20
2023-03-06T05:59:28.381Z,2.45
2023-03-06T06:01:55.930Z,3.65
2023-03-06T06:04:24.468Z,3.38
2023-03-06T06:06:54.010Z,3.40
2023-03-06T06:09:22.324Z,3.55
2023-03-06T06:11:53.551Z,3.30
2023-03-06T06:14:20.783Z,4.00
2023-03-06T06:16:47.835Z,3.45
2023-03-06T06:19:18.660Z,4.20
2023-03-06T06:21:51.941Z,4.07
2023-03-06T06:24:21.382Z,3.72
2023-03-06T06:26:51.254Z,3.50
2023-03-06T06:29:17.909Z,3.05
2023-03-06T06:31:44.599Z,3.88
2023-03-06T06:34:12.085Z,4.57
2023-03-06T06:36:39.421Z,4.57
2023-03-06T06:39:07.790Z,2.75
2023-03-06T06:41:54.765Z,3.15
2023-03-06T06:44:21.859Z,4.75
2023-03-06T06:49:36.750Z,3.92
2023-03-06T06:52:04.569Z,3.85
2023-03-06T06:54:32.259Z,3.10
2023-03-06T06:56:59.022Z,1.92
2023-03-06T06:59:25.695Z,3.47
2023-03-06T07:01:52.646Z,3.17
2023-03-06T07:04:19.752Z,4.18
2023-03-06T07:06:46.692Z,3.13
2023-03-06T07:09:14.495Z,4.20
2023-03-06T07:11:41.679Z,3.15
2023-03-06T07:14:08.304Z,3.42
2023-03-06T07:16:35.098Z,2.90
2023-03-06T07:19:01.741Z,2.63
2023-03-06T07:21:28.438Z,2.20
2023-03-06T07:23:57.219Z,4.05
2023-03-06T07:26:25.345Z,3.15
2023-03-06T07:28:53.630Z,2.85
2023-03-06T07:31:22.601Z,3.00
2023-03-06T07:33:50.766Z,3.20
2023-03-06T07:36:17.868Z,3.28
2023-03-06T07:38:44.499Z,3.03
2023-03-06T07:41:13.736Z,3.58
2023-03-06T07:43:41.578Z,3.45
2023-03-06T07:46:09.090Z,3.50
2023-03-06T07:48:36.795Z,3.58
2023-03-06T07:51:06.922Z,4.22
2023-03-06T07:53:34.123Z,3.38
2023-03-06T07:56:00.932Z,5.50
2023-03-06T07:58:27.524Z,3.50
2023-03-06T08:00:54.098Z,3.25
2023-03-06T08:03:20.759Z,3.25
2023-03-06T08:05:47.556Z,4.20
2023-03-06T08:08:14.339Z,4.15
2023-03-06T08:10:40.971Z,3.03
2023-03-06T08:13:07.508Z,3.88
2023-03-06T08:15:34.146Z,4.65
2023-03-06T08:18:00.789Z,6.15
2023-03-06T08:20:27.411Z,4.90
2023-03-06T08:22:54.018Z,5.75
2023-03-06T08:25:20.583Z,4.32
2023-03-06T08:27:47.406Z,5.03
2023-03-06T08:30:14.769Z,5.78
2023-03-06T08:32:41.505Z,4.85
2023-03-06T08:35:08.476Z,3.33
2023-03-06T08:37:35.213Z,4.00
2023-03-06T08:40:04.544Z,4.40
2023-03-06T08:42:31.929Z,4.93
2023-03-06T08:44:58.603Z,5.00
2023-03-06T08:47:25.489Z,5.80
2023-03-06T08:49:52.301Z,6.32
2023-03-06T08:52:19.869Z,5.47
2023-03-06T08:54:46.699Z,6.10
2023-03-06T08:57:13.293Z,5.32
2023-03-06T08:59:39.888Z,6.15
2023-03-06T09:02:07.624Z,5.13
2023-03-06T09:07:01.559Z,6.53
2023-03-06T09:09:28.192Z,4.88
2023-03-06T09:11:55.076Z,5.57
2023-03-06T09:14:21.879Z,5.65
2023-03-06T09:16:48.511Z,6.00
2023-03-06T09:19:15.168Z,7.82
2023-03-06T09:21:41.991Z,7.25
2023-03-06T09:24:08.793Z,6.72
2023-03-06T09:26:45.462Z,7.88
2023-03-06T09:29:12.799Z,6.88
2023-03-06T09:31:39.508Z,7.28
2023-03-06T09:34:06.166Z,5.28
2023-03-06T09:36:42.721Z,6.10
2023-03-06T09:39:16.003Z,6.95
2023-03-06T09:41:43.082Z,6.68
2023-03-06T09:44:16.664Z,6.50
2023-03-06T09:47:10.911Z,6.28
2023-03-06T09:49:56.368Z,6.47
2023-03-06T09:52:40.984Z,6.40
2023-03-06T09:55:18.876Z,7.28
2023-03-06T09:58:07.179Z,8.00
2023-03-06T10:00:39.676Z,7.68
2023-03-06T10:03:13.331Z,6.88
2023-03-06T10:05:44.617Z,6.53
2023-03-06T10:08:49.967Z,7.05
2023-03-06T10:11:33.993Z,7.55
2023-03-06T10:14:12.789Z,6.43
2023-03-06T10:16:40.267Z,5.70
2023-03-06T10:22:03.445Z,5.78
2023-03-06T10:24:38.808Z,5.40
2023-03-06T10:27:14.832Z,6.55
2023-03-06T10:29:43.613Z,6.97
2023-03-06T10:32:46.124Z,7.63
2023-03-06T10:35:48.357Z,8.25
2023-03-06T10:38:37.578Z,7.03
2023-03-06T10:41:07.298Z,6.75
2023-03-06T10:43:36.534Z,6.80
2023-03-06T10:46:05.035Z,7.35
2023-03-06T10:48:35.901Z,6.85
2023-03-06T10:51:20.365Z,5.93
2023-03-06T10:53:54.656Z,7.20
2023-03-06T10:56:33.412Z,6.20
2023-03-06T10:59:28.462Z,7.50
2023-03-06T11:02:21.858Z,7.45
2023-03-06T11:04:52.991Z,6.90
2023-03-06T11:07:21.941Z,7.70
2023-03-06T11:09:57.730Z,7.43
2023-03-06T11:12:36.554Z,8.15
2023-03-06T11:15:15.004Z,6.25
2023-03-06T11:17:52.507Z,7.32
2023-03-06T11:20:48.506Z,6.90
2023-03-06T11:23:40.107Z,6.32
2023-03-06T11:26:16.105Z,7.10
2023-03-06T11:28:57.855Z,8.20
2023-03-06T11:31:29.749Z,6.82
2023-03-06T11:34:11.728Z,7.43
2023-03-06T11:36:54.618Z,6.53
2023-03-06T11:39:49.375Z,8.50
2023-03-06T11:42:21.927Z,6.60
2023-03-06T11:45:03.749Z,7.07
2023-03-06T11:48:13.829Z,6.28
2023-03-06T11:50:51.478Z,5.95
2023-03-06T11:53:36.964Z,6.43
2023-03-06T11:59:15.819Z,7.13
2023-03-06T12:01:54.330Z,6.35
2023-03-06T12:04:39.358Z,7.00
2023-03-06T12:07:20.240Z,7.63
2023-03-06T12:09:54.925Z,7.75
2023-03-06T12:12:46.228Z,7.60
2023-03-06T12:15:28.281Z,6.40
2023-03-06T12:18:18.313Z,6.43
2023-03-06T12:21:03.990Z,5.30
2023-03-06T12:24:03.785Z,6.70
2023-03-06T12:26:54.544Z,6.95
2023-03-06T12:29:37.148Z,7.05
2023-03-06T12:32:09.856Z,6.82
2023-03-06T12:34:51.773Z,7.93
2023-03-06T12:37:35.006Z,6.55
2023-03-06T12:40:01.601Z,7.50
2023-03-06T12:42:52.609Z,7.78
2023-03-06T12:45:30.803Z,7.40
2023-03-06T12:47:58.596Z,6.40
2023-03-06T12:50:33.762Z,7.00
2023-03-06T12:53:07.424Z,6.65
2023-03-06T12:55:48.731Z,7.50
2023-03-06T12:58:30.668Z,9.15
2023-03-06T13:01:04.314Z,7.45
2023-03-06T13:03:44.880Z,7.32
2023-03-06T13:06:34.455Z,8.18
2023-03-06T13:09:14.727Z,7.00
2023-03-06T13:12:15.528Z,7.82
2023-03-06T13:14:48.711Z,7.90
2023-03-06T13:17:32.450Z,7.80
2023-03-06T13:20:14.534Z,7.43
2023-03-06T13:22:43.143Z,9.00
2023-03-06T13:25:19.235Z,9.20
2023-03-06T13:27:59.096Z,9.77
2023-03-06T13:30:43.671Z,9.50
2023-03-06T13:33:30.106Z,7.75
2023-03-06T13:35:58.312Z,7.53
2023-03-06T13:38:37.049Z,8.65
2023-03-06T13:41:22.040Z,7.38
2023-03-06T13:43:51.235Z,6.38
2023-03-06T13:46:25.877Z,8.73
2023-03-06T13:49:10.645Z,7.47
2023-03-06T13:51:40.199Z,7.53
2023-03-06T13:54:09.836Z,7.57
2023-03-06T13:56:51.570Z,7.97
2023-03-06T13:59:54.409Z,10.27
2023-03-06T14:02:29.883Z,9.48
2023-03-06T14:07:40.460Z,8.32
2023-03-06T14:10:22.381Z,9.35
2023-03-06T14:12:48.941Z,9.98
2023-03-06T14:15:28.852Z,9.10
2023-03-06T14:18:05.889Z,9.15
2023-03-06T14:20:43.651Z,8.48
2023-03-06T14:23:42.334Z,8.27
2023-03-06T14:26:43.134Z,8.65
2023-03-06T14:29:26.968Z,8.93
2023-03-06T14:31:57.713Z,9.15
2023-03-06T14:34:27.871Z,10.45
2023-03-06T14:36:58.100Z,9.82
2023-03-06T14:39:33.880Z,9.43
2023-03-06T14:42:19.420Z,8.77
2023-03-06T14:47:25.549Z,8.18
2023-03-06T14:50:28.669Z,9.35
2023-03-06T14:53:04.385Z,7.88
2023-03-06T14:55:34.874Z,8.07
2023-03-06T14:58:04.099Z,9.77
2023-03-06T15:00:36.242Z,8.30
2023-03-06T15:03:12.635Z,9.02
2023-03-06T15:05:40.861Z,8.00
2023-03-06T15:08:08.670Z,7.15
2023-03-06T15:10:36.142Z,8.38
2023-03-06T15:15:36.842Z,6.90
2023-03-06T15:18:22.631Z,7.88
2023-03-06T15:20:54.493Z,7.47
2023-03-06T15:23:42.528Z,8.02
2023-03-06T15:26:34.409Z,7.25
2023-03-06T15:29:27.526Z,7.63
2023-03-06T15:32:25.396Z,8.90
2023-03-06T15:35:32.811Z,7.95
2023-03-06T15:37:59.791Z,6.75
2023-03-06T15:40:29.851Z,6.95
2023-03-06T15:43:00.619Z,7.07
2023-03-06T15:45:29.442Z,7.20
2023-03-06T15:47:56.177Z,6.43
2023-03-06T15:50:28.830Z,8.20
2023-03-06T15:52:55.665Z,7.07
2023-03-06T15:55:25.843Z,8.20
2023-03-06T15:57:59.636Z,6.00
2023-03-06T16:00:40.013Z,6.10
2023-03-06T16:03:06.642Z,8.15
2023-03-06T16:05:33.214Z,7.13
2023-03-06T16:07:59.875Z,7.90
2023-03-06T16:10:29.751Z,7.68
2023-03-06T16:13:02.481Z,8.38
2023-03-06T16:15:30.577Z,7.95
2023-03-06T16:17:57.957Z,6.18
2023-03-06T16:20:28.112Z,7.25
2023-03-06T16:22:55.283Z,7.22
2023-03-06T16:25:25.904Z,6.47
2023-03-06T16:27:58.016Z,5.97
2023-03-06T16:30:27.617Z,5.45
2023-03-06T16:32:54.374Z,7.03
2023-03-06T16:35:21.604Z,6.25
2023-03-06T16:37:48.519Z,5.78
2023-03-06T16:40:27.701Z,6.47
2023-03-06T16:42:55.317Z,5.90
2023-03-06T16:45:22.768Z,6.82
2023-03-06T16:47:49.585Z,5.82
2023-03-06T16:50:29.987Z,5.85
2023-03-06T16:52:58.419Z,6.68
2023-03-06T16:55:26.502Z,5.57
2023-03-06T16:57:54.048Z,6.97
2023-03-06T17:00:22.021Z,5.53
2023-03-06T17:02:49.499Z,7.80
2023-03-06T17:05:16.721Z,6.57
2023-03-06T17:07:43.434Z,6.28
2023-03-06T17:10:13.245Z,6.43
2023-03-06T17:12:39.888Z,6.65
2023-03-06T17:15:08.108Z,6.30
2023-03-06T17:17:35.265Z,5.57
2023-03-06T17:20:08.083Z,5.68
2023-03-06T17:22:36.608Z,6.20
2023-03-06T17:25:06.772Z,5.88
2023-03-06T17:27:34.480Z,6.20
2023-03-06T17:30:01.851Z,5.65
2023-03-06T17:32:28.747Z,5.50
2023-03-06T17:34:55.473Z,5.55
2023-03-06T17:37:22.313Z,6.72
2023-03-06T17:39:49.868Z,7.53
2023-03-06T17:42:16.674Z,6.32
2023-03-06T17:44:43.270Z,15.82
2023-03-06T17:47:10.356Z,9.18
2023-03-06T17:49:36.996Z,7.43
2023-03-06T17:52:05.560Z,6.32
2023-03-06T17:54:33.333Z,7.10
2023-03-06T17:57:03.306Z,5.93
2023-03-06T17:59:31.937Z,6.10
2023-03-06T18:01:59.556Z,7.65
2023-03-06T18:04:26.699Z,8.27
2023-03-06T18:06:53.375Z,6.45
2023-03-06T18:09:19.978Z,7.95
2023-03-06T18:11:46.745Z,7.63
2023-03-06T18:14:15.792Z,6.90
2023-03-06T18:16:42.494Z,6.53
2023-03-06T18:19:11.154Z,4.90
2023-03-06T18:21:39.004Z,7.53
2023-03-06T18:24:06.042Z,6.60
2023-03-06T18:26:32.759Z,6.85
2023-03-06T18:29:02.417Z,7.43
2023-03-06T18:31:34.583Z,7.65
2023-03-06T18:34:10.716Z,7.40
2023-03-06T18:36:38.443Z,6.25
2023-03-06T18:41:37.031Z,7.28
2023-03-06T18:44:04.983Z,7.72
2023-03-06T18:46:34.599Z,7.35
2023-03-06T18:49:01.959Z,7.35
2023-03-06T18:51:29.032Z,7.88
2023-03-06T18:53:59.837Z,6.85
2023-03-06T18:56:26.776Z,8.27
2023-03-06T18:58:53.823Z,6.82
2023-03-06T19:01:22.433Z,6.53
2023-03-06T19:03:49.205Z,5.97
2023-03-06T19:06:16.925Z,8.65
2023-03-06T19:08:44.012Z,8.55
2023-03-06T19:11:13.464Z,9.23
2023-03-06T19:13:43.043Z,6.95
2023-03-06T19:16:16.005Z,5.95
2023-03-06T19:18:42.612Z,7.15
2023-03-06T19:21:20.669Z,6.10
2023-03-06T19:23:47.593Z,7.95
2023-03-06T19:26:15.442Z,6.80
2023-03-06T19:28:42.813Z,8.60
2023-03-06T19:31:09.532Z,6.57
2023-03-06T19:33:39.078Z,7.85
2023-03-06T19:36:07.877Z,6.90
2023-03-06T19:38:34.650Z,7.72
2023-03-06T19:41:01.427Z,7.75
2023-03-06T19:43:29.179Z,8.38
2023-03-06T19:48:23.703Z,7.55
2023-03-06T19:50:50.403Z,8.05
2023-03-06T19:53:17.102Z,7.28
2023-03-06T19:55:43.766Z,7.47
2023-03-06T19:58:11.203Z,8.50
2023-03-06T20:00:38.477Z,7.57
2023-03-06T20:03:05.316Z,7.68
2023-03-06T20:05:32.878Z,8.57
2023-03-06T20:07:59.572Z,7.82
2023-03-06T20:10:26.251Z,8.38
2023-03-06T20:12:52.922Z,7.28
2023-03-06T20:15:22.123Z,8.02
2023-03-06T20:17:48.756Z,7.05
2023-03-06T20:20:15.692Z,10.43
2023-03-06T20:22:42.360Z,8.55
2023-03-06T20:25:09.124Z,7.43
2023-03-06T20:27:35.897Z,7.13
2023-03-06T20:30:02.741Z,7.72
2023-03-06T20:32:29.514Z,6.75
2023-03-06T20:34:56.181Z,8.65
2023-03-06T20:37:22.864Z,7.50
2023-03-06T20:39:49.431Z,7.95
2023-03-06T20:42:17.642Z,7.85
2023-03-06T20:44:44.332Z,6.97
2023-03-06T20:47:10.938Z,6.38
2023-03-06T20:49:38.226Z,8.60
2023-03-06T20:52:04.832Z,7.72
2023-03-06T20:54:31.384Z,7.80
2023-03-06T20:56:58.091Z,7.82
2023-03-06T20:59:24.880Z,8.55
2023-03-06T21:01:51.583Z,9.10
2023-03-06T21:04:18.300Z,7.43
2023-03-06T21:06:46.883Z,7.22
2023-03-06T21:09:15.927Z,7.80
2023-03-06T21:11:42.909Z,9.57
2023-03-06T21:14:09.565Z,8.38
2023-03-06T21:16:36.741Z,6.20
2023-03-06T21:19:03.539Z,6.80
2023-03-06T21:21:32.782Z,7.97
2023-03-06T21:24:00.069Z,7.90
2023-03-06T21:26:29.674Z,8.50
2023-03-06T21:28:58.917Z,7.72
2023-03-06T21:31:27.051Z,9.07
2023-03-06T21:33:54.069Z,9.48
2023-03-06T21:36:24.267Z,9.90
2023-03-06T21:38:52.424Z,7.57
2023-03-06T21:41:25.813Z,8.05
2023-03-06T21:43:57.396Z,8.05
2023-03-06T21:46:24.682Z,7.32
2023-03-06T21:48:51.305Z,8.23
2023-03-06T21:51:19.765Z,7.05
2023-03-06T21:53:47.996Z,7.60
2023-03-06T21:56:17.302Z,10.27
2023-03-06T21:58:45.070Z,7.45
2023-03-06T22:01:15.721Z,8.05
2023-03-06T22:03:42.571Z,8.63
2023-03-06T22:06:14.740Z,8.30
2023-03-06T22:08:42.063Z,8.02
2023-03-06T22:11:11.716Z,7.60
2023-03-06T22:13:38.562Z,8.65
2023-03-06T22:16:06.303Z,7.28
2023-03-06T22:18:34.154Z,7.63
2023-03-06T22:21:05.698Z,7.93
2023-03-06T22:23:32.383Z,8.20
2023-03-06T22:26:07.986Z,7.90
2023-03-06T22:28:35.145Z,8.98
2023-03-06T22:31:09.564Z,7.57
2023-03-06T22:33:36.642Z,7.22
2023-03-06T22:36:07.213Z,8.23
2023-03-06T22:38:35.276Z,9.07
2023-03-06T22:41:02.401Z,8.23
2023-03-06T22:43:29.122Z,8.32
2023-03-06T22:46:01.071Z,7.85
2023-03-06T22:48:27.969Z,7.95
2023-03-06T22:50:54.689Z,9.65
2023-03-06T22:53:21.376Z,7.78
2023-03-06T22:55:48.056Z,7.82
2023-03-06T22:58:14.686Z,6.53
2023-03-06T23:00:41.281Z,9.27
2023-03-06T23:03:07.849Z,8.35
2023-03-06T23:05:34.559Z,7.38
2023-03-06T23:08:01.177Z,8.15
2023-03-06T23:10:27.805Z,8.35
2023-03-06T23:13:13.146Z,9.77
2023-03-06T23:16:02.373Z,7.80
2023-03-06T23:18:48.404Z,7.63
2023-03-06T23:21:34.514Z,8.90
2023-03-06T23:24:19.977Z,7.90
2023-03-06T23:26:46.753Z,7.18
2023-03-06T23:29:13.352Z,8.68
2023-03-06T23:31:40.090Z,7.68
2023-03-06T23:34:06.922Z,7.80
2023-03-06T23:36:33.640Z,8.02
2023-03-06T23:39:00.452Z,7.00
2023-03-06T23:41:27.210Z,7.03
2023-03-06T23:43:55.297Z,7.85
2023-03-06T23:46:22.471Z,7.55
2023-03-06T23:48:49.353Z,7.22
2023-03-06T23:51:19.166Z,7.78
2023-03-06T23:53:47.467Z,8.93
2023-03-06T23:56:14.288Z,8.52
2023-03-06T23:58:41.192Z,6.65
